createdAt,value
2019-05-17T00:01:22.363Z,99103.83
2019-05-17T00:03:53.777Z,99109.03
2019-05-17T00:06:24.574Z,99097.99
2019-05-17T00:08:56.454Z,99097.32
2019-05-17T00:11:27.959Z,99101.09
2019-05-17T00:13:58.704Z,99087.37
2019-05-17T00:16:29.708Z,99083.14
2019-05-17T00:19:00.843Z,99079.56
2019-05-17T00:21:31.568Z,99079.02
2019-05-17T00:24:02.544Z,99076.57
2019-05-17T00:26:33.344Z,99079.10
2019-05-17T00:29:06.653Z,99073.55
2019-05-17T00:31:37.158Z,99065.82
2019-05-17T00:34:07.883Z,99070.00
2019-05-17T00:36:38.677Z,99066.45
2019-05-17T00:39:09.814Z,99069.80
2019-05-17T00:41:40.543Z,99070.20
2019-05-17T00:44:11.430Z,99071.78
2019-05-17T00:46:42.456Z,99069.18
2019-05-17T00:49:13.266Z,99063.57
2019-05-17T00:51:44.223Z,99062.20
2019-05-17T00:54:17.256Z,99064.92
2019-05-17T00:56:47.575Z,99061.81
2019-05-17T00:59:18.331Z,99055.30
2019-05-17T01:01:49.075Z,99054.48
2019-05-17T01:04:19.894Z,99054.00
2019-05-17T01:06:50.767Z,99050.50
2019-05-17T01:09:21.738Z,99050.50
2019-05-17T01:11:52.472Z,99043.85
2019-05-17T01:14:23.462Z,99036.88
2019-05-17T01:16:56.360Z,99045.03
2019-05-17T01:19:27.073Z,99034.15
2019-05-17T01:21:58.049Z,99035.45
2019-05-17T01:24:29.024Z,99036.05
2019-05-17T01:27:00.077Z,99034.75
2019-05-17T01:29:31.146Z,99022.16
2019-05-17T01:32:02.366Z,99017.91
2019-05-17T01:34:33.209Z,99019.36
2019-05-17T01:37:06.339Z,99020.86
2019-05-17T01:39:37.462Z,99017.84
2019-05-17T01:42:09.567Z,99014.95
2019-05-17T01:44:40.313Z,99010.91
2019-05-17T01:47:11.514Z,99012.61
2019-05-17T01:49:42.859Z,99010.10
2019-05-17T01:52:13.833Z,99011.30
2019-05-17T01:54:46.781Z,99014.44
2019-05-17T01:57:17.093Z,99007.71
2019-05-17T01:59:47.847Z,99010.59
2019-05-17T02:02:23.144Z,99003.27
2019-05-17T02:04:54.115Z,99003.77
2019-05-17T02:07:26.716Z,98991.36
2019-05-17T02:09:57.825Z,98997.47
2019-05-17T02:12:28.623Z,98994.59
2019-05-17T02:14:59.617Z,98985.80
2019-05-17T02:17:30.573Z,98985.42
2019-05-17T02:20:02.515Z,98982.47
2019-05-17T02:22:33.315Z,98983.27
2019-05-17T02:25:07.137Z,98979.94
2019-05-17T02:27:41.181Z,98974.17
2019-05-17T02:30:14.018Z,98984.58
2019-05-17T02:32:43.443Z,98977.61
2019-05-17T02:35:15.396Z,98975.00
2019-05-17T02:37:46.355Z,98973.00
2019-05-17T02:40:17.589Z,98977.88
2019-05-17T02:42:48.865Z,98969.25
2019-05-17T02:45:23.205Z,98975.00
2019-05-17T02:47:53.802Z,98972.27
2019-05-17T02:50:24.663Z,98972.87
2019-05-17T02:52:55.713Z,98968.02
2019-05-17T02:55:26.448Z,98965.06
2019-05-17T02:57:57.849Z,98958.91
2019-05-17T03:00:28.689Z,98957.89
2019-05-17T03:03:03.037Z,98962.05
2019-05-17T03:05:33.695Z,98962.88
2019-05-17T03:08:05.121Z,98962.25
2019-05-17T03:10:35.861Z,98963.83
2019-05-17T03:13:06.669Z,98961.96
2019-05-17T03:15:37.405Z,98959.64
2019-05-17T03:18:08.212Z,98953.55
2019-05-17T03:20:38.986Z,98951.20
2019-05-17T03:23:12.429Z,98954.44
2019-05-17T03:25:44.078Z,98946.73
2019-05-17T03:28:15.036Z,98949.52
2019-05-17T03:30:47.379Z,98947.30
2019-05-17T03:33:18.584Z,98945.34
2019-05-17T03:35:49.522Z,98947.11
2019-05-17T03:38:22.785Z,98944.39
2019-05-17T03:41:18.279Z,98944.45
2019-05-17T03:43:26.495Z,98948.67
2019-05-17T03:45:58.029Z,98947.37
2019-05-17T03:48:28.868Z,98949.66
2019-05-17T03:51:02.383Z,98948.83
2019-05-17T03:53:33.451Z,98946.64
2019-05-17T03:56:04.443Z,98953.49
2019-05-17T03:58:35.255Z,98946.64
2019-05-17T04:01:06.496Z,98944.63
2019-05-17T04:03:37.530Z,98939.23
2019-05-17T04:06:08.717Z,98935.19
2019-05-17T04:08:42.253Z,98936.02
2019-05-17T04:11:22.402Z,98942.73
2019-05-17T04:13:45.617Z,98943.40
2019-05-17T04:16:16.337Z,98954.43
2019-05-17T04:18:47.305Z,98947.78
2019-05-17T04:21:18.286Z,98950.27
2019-05-17T04:23:49.147Z,98953.27
2019-05-17T04:26:22.766Z,98959.49
2019-05-17T04:28:53.471Z,98961.61
2019-05-17T04:31:25.159Z,98956.55
2019-05-17T04:33:56.151Z,98956.91
2019-05-17T04:36:27.122Z,98961.83
2019-05-17T04:38:58.129Z,98967.33
2019-05-17T04:41:44.147Z,98969.53
2019-05-17T04:44:02.766Z,98966.36
2019-05-17T04:46:33.671Z,98971.63
2019-05-17T04:49:05.575Z,98972.72
2019-05-17T04:51:36.316Z,98978.38
2019-05-17T04:54:07.088Z,98978.22
2019-05-17T04:56:37.842Z,98972.47
2019-05-17T04:59:09.073Z,98973.20
2019-05-17T05:01:43.637Z,98966.72
2019-05-17T05:04:15.508Z,98965.13
2019-05-17T05:06:45.431Z,98966.53
2019-05-17T05:09:16.259Z,98967.06
2019-05-17T05:11:59.660Z,98963.03
2019-05-17T05:14:19.863Z,98966.02
2019-05-17T05:16:52.862Z,98965.81
2019-05-17T05:19:23.717Z,98968.73
2019-05-17T05:21:54.534Z,98964.43
2019-05-17T05:24:26.070Z,98961.39
2019-05-17T05:26:56.808Z,98954.03
2019-05-17T05:29:27.888Z,98957.52
2019-05-17T05:31:58.656Z,98962.20
2019-05-17T05:34:29.652Z,98956.77
2019-05-17T05:37:02.094Z,98962.00
2019-05-17T05:39:33.305Z,98959.02
2019-05-17T05:42:10.231Z,98955.16
2019-05-17T05:44:37.296Z,98940.20
2019-05-17T05:47:08.941Z,98948.42
2019-05-17T05:49:39.945Z,98946.73
2019-05-17T05:52:12.517Z,98943.41
2019-05-17T05:54:43.386Z,98951.66
2019-05-17T05:57:14.398Z,98949.84
2019-05-17T05:59:45.237Z,98950.92
2019-05-17T06:02:16.292Z,98949.57
2019-05-17T06:04:47.347Z,98950.47
2019-05-17T06:07:18.422Z,98953.09
2019-05-17T06:09:51.612Z,98951.58
2019-05-17T06:12:27.697Z,98953.25
2019-05-17T06:14:54.530Z,98956.97
2019-05-17T06:17:25.537Z,98955.35
2019-05-17T06:19:56.297Z,98953.95
2019-05-17T06:22:27.533Z,98956.04
2019-05-17T06:24:58.314Z,98958.55
2019-05-17T06:27:29.155Z,98959.23
2019-05-17T06:30:01.514Z,98955.73
2019-05-17T06:32:32.341Z,98952.88
2019-05-17T06:35:03.176Z,98950.81
2019-05-17T06:37:34.412Z,98941.59
2019-05-17T06:40:05.665Z,98956.31
2019-05-17T06:42:41.086Z,98954.33
2019-05-17T06:45:09.324Z,98950.18
2019-05-17T06:47:42.322Z,98954.09
2019-05-17T06:50:14.251Z,98947.61
2019-05-17T06:52:45.659Z,98950.44
2019-05-17T06:55:16.493Z,98944.05
2019-05-17T06:57:47.435Z,98947.91
2019-05-17T07:00:23.422Z,98947.91
2019-05-17T07:02:51.540Z,98942.62
2019-05-17T07:05:26.485Z,98946.64
2019-05-17T07:08:00.110Z,98941.86
2019-05-17T07:10:30.383Z,98947.07
2019-05-17T07:13:01.978Z,98942.93
2019-05-17T07:15:43.671Z,98939.34
2019-05-17T07:18:05.757Z,98934.70
2019-05-17T07:20:36.491Z,98935.61
2019-05-17T07:23:07.426Z,98933.22
2019-05-17T07:25:39.707Z,98933.65
2019-05-17T07:28:10.925Z,98935.23
2019-05-17T07:30:42.876Z,98929.14
2019-05-17T07:33:13.949Z,98937.42
2019-05-17T07:35:44.948Z,98938.30
2019-05-17T07:38:15.943Z,98926.19
2019-05-17T07:40:46.995Z,98922.38
2019-05-17T07:43:20.568Z,98916.41
2019-05-17T07:45:50.711Z,98915.48
2019-05-17T07:48:21.930Z,98907.87
2019-05-17T07:50:53.145Z,98909.97
2019-05-17T07:53:24.133Z,98903.56
2019-05-17T07:55:54.903Z,98893.78
2019-05-17T07:58:26.142Z,98890.89
2019-05-17T08:00:57.384Z,98893.05
2019-05-17T08:03:29.866Z,98885.77
2019-05-17T08:06:00.724Z,98881.16
2019-05-17T08:08:31.567Z,98886.53
2019-05-17T08:11:02.506Z,98882.70
2019-05-17T08:13:33.860Z,98874.34
2019-05-17T08:16:04.693Z,98868.60
2019-05-17T08:18:35.696Z,98867.52
2019-05-17T08:21:06.523Z,98864.33
2019-05-17T08:23:39.845Z,98867.22
2019-05-17T08:26:10.805Z,98865.36
2019-05-17T08:28:41.712Z,98871.40
2019-05-17T08:31:12.435Z,98862.63
2019-05-17T08:33:43.252Z,98859.09
2019-05-17T08:36:14.304Z,98849.64
2019-05-17T08:38:45.041Z,98844.63
2019-05-17T08:41:16.010Z,98845.95
2019-05-17T08:43:47.278Z,98848.09
2019-05-17T08:46:19.922Z,98842.15
2019-05-17T08:48:51.019Z,98845.59
2019-05-17T08:51:21.919Z,98838.05
2019-05-17T08:53:52.927Z,98839.69
2019-05-17T08:56:23.948Z,98842.62
2019-05-17T08:58:55.487Z,98839.25
2019-05-17T09:01:26.961Z,98836.40
2019-05-17T09:03:59.771Z,98842.27
2019-05-17T09:06:30.168Z,98837.71
2019-05-17T09:09:01.031Z,98834.97
2019-05-17T09:11:33.321Z,98824.39
2019-05-17T09:14:04.432Z,98830.14
2019-05-17T09:16:35.170Z,98829.28
2019-05-17T09:19:06.896Z,98815.67
2019-05-17T09:21:39.757Z,98822.09
2019-05-17T09:24:10.638Z,98828.55
2019-05-17T09:26:42.352Z,98821.73
2019-05-17T09:29:13.147Z,98811.37
2019-05-17T09:31:44.105Z,98818.52
2019-05-17T09:34:15.178Z,98815.67
2019-05-17T09:36:45.905Z,98820.67
2019-05-17T09:39:16.685Z,98809.59
2019-05-17T09:41:50.164Z,98806.90
2019-05-17T09:44:20.735Z,98805.44
2019-05-17T09:46:51.900Z,98802.80
2019-05-17T09:49:23.112Z,98801.10
2019-05-17T09:51:53.852Z,98802.39
2019-05-17T09:54:39.993Z,98792.66
2019-05-17T09:57:00.306Z,98798.31
2019-05-17T09:59:30.671Z,98790.38
2019-05-17T10:02:01.696Z,98783.55
2019-05-17T10:04:32.520Z,98783.27
2019-05-17T10:07:03.290Z,98786.45
2019-05-17T10:09:34.107Z,98785.47
2019-05-17T10:12:05.109Z,98783.00
2019-05-17T10:14:36.477Z,98784.14
2019-05-17T10:17:09.691Z,98782.28
2019-05-17T10:19:40.295Z,98782.60
2019-05-17T10:22:11.773Z,98775.66
2019-05-17T10:24:42.809Z,98775.66
2019-05-17T10:27:14.691Z,98774.98
2019-05-17T10:29:45.950Z,98776.52
2019-05-17T10:32:17.046Z,98769.05
2019-05-17T10:34:49.510Z,98775.48
2019-05-17T10:37:20.749Z,98771.72
2019-05-17T10:39:51.644Z,98768.38
2019-05-17T10:42:22.968Z,98765.13
2019-05-17T10:44:54.707Z,98762.80
2019-05-17T10:47:25.712Z,98759.19
2019-05-17T10:49:56.733Z,98760.89
2019-05-17T10:52:29.729Z,98763.94
2019-05-17T10:55:00.074Z,98761.65
2019-05-17T10:57:30.875Z,98764.66
2019-05-17T11:00:02.119Z,98763.66
2019-05-17T11:02:34.800Z,98756.34
2019-05-17T11:05:07.542Z,98755.17
2019-05-17T11:07:38.369Z,98753.98
2019-05-17T11:10:11.750Z,98743.53
2019-05-17T11:12:42.742Z,98751.66
2019-05-17T11:15:13.988Z,98744.23
2019-05-17T11:17:44.712Z,98749.45
2019-05-17T11:20:16.390Z,98741.89
2019-05-17T11:22:47.319Z,98745.64
2019-05-17T11:25:18.197Z,98735.25
2019-05-17T11:27:49.028Z,98738.72
2019-05-17T11:30:21.258Z,98736.70
2019-05-17T11:32:52.209Z,98744.13
2019-05-17T11:35:24.764Z,98738.17
2019-05-17T11:37:55.593Z,98735.74
2019-05-17T11:40:26.588Z,98732.69
2019-05-17T11:42:57.913Z,98731.47
2019-05-17T11:45:32.499Z,98729.23
2019-05-17T11:48:01.783Z,98724.98
2019-05-17T11:50:32.899Z,98720.87
2019-05-17T11:53:04.283Z,98717.55
2019-05-17T11:55:35.373Z,98715.75
2019-05-17T11:58:06.179Z,98714.91
2019-05-17T12:00:37.465Z,98707.05
2019-05-17T12:03:08.871Z,98705.73
2019-05-17T12:05:39.755Z,98709.52
2019-05-17T12:08:10.755Z,98705.11
2019-05-17T12:10:41.635Z,98710.19
2019-05-17T12:13:13.485Z,98699.66
2019-05-17T12:15:45.717Z,98700.09
2019-05-17T12:18:16.590Z,98708.78
2019-05-17T12:20:47.421Z,98702.83
2019-05-17T12:23:18.154Z,98705.23
2019-05-17T12:25:49.243Z,98703.55
2019-05-17T12:28:19.997Z,98699.90
2019-05-17T12:30:50.795Z,98699.69
2019-05-17T12:33:21.773Z,98699.95
2019-05-17T12:35:53.036Z,98704.19
2019-05-17T12:38:23.760Z,98693.86
2019-05-17T12:40:54.853Z,98694.94
2019-05-17T12:43:26.218Z,98691.34
2019-05-17T12:46:00.668Z,98688.92
2019-05-17T12:48:30.236Z,98686.88
2019-05-17T12:51:01.453Z,98694.05
2019-05-17T12:53:32.537Z,98693.20
2019-05-17T12:56:03.495Z,98693.97
2019-05-17T12:58:34.250Z,98691.89
2019-05-17T13:01:06.165Z,98695.45
2019-05-17T13:03:37.120Z,98695.66
2019-05-17T13:06:08.457Z,98689.54
2019-05-17T13:08:39.223Z,98686.21
2019-05-17T13:11:10.083Z,98688.19
2019-05-17T13:13:40.817Z,98686.90
2019-05-17T13:16:18.047Z,98683.07
2019-05-17T13:18:44.466Z,98674.37
2019-05-17T13:21:15.451Z,98667.58
2019-05-17T13:23:46.653Z,98679.05
2019-05-17T13:26:17.732Z,98682.48
2019-05-17T13:28:48.464Z,98680.64
2019-05-17T13:31:19.362Z,98682.68
2019-05-17T13:33:50.574Z,98682.19
2019-05-17T13:36:21.318Z,98677.22
2019-05-17T13:38:52.079Z,98670.13
2019-05-17T13:41:22.872Z,98679.11
2019-05-17T13:43:53.752Z,98667.89
2019-05-17T13:46:33.330Z,98665.91
2019-05-17T13:48:59.401Z,98669.53
2019-05-17T13:51:30.498Z,98661.13
2019-05-17T13:54:01.458Z,98657.17
2019-05-17T13:56:32.691Z,98659.58
2019-05-17T13:59:03.503Z,98654.91
2019-05-17T14:01:34.474Z,98657.92
2019-05-17T14:04:05.505Z,98652.44
2019-05-17T14:06:36.492Z,98655.06
2019-05-17T14:09:07.643Z,98655.56
2019-05-17T14:11:38.632Z,98654.33
2019-05-17T14:14:09.865Z,98653.77
2019-05-17T14:16:40.860Z,98652.69
2019-05-17T14:19:11.663Z,98652.87
2019-05-17T14:21:42.429Z,98646.72
2019-05-17T14:24:13.381Z,98643.02
2019-05-17T14:26:44.123Z,98640.09
2019-05-17T14:29:16.659Z,98645.15
2019-05-17T14:31:48.938Z,98638.62
2019-05-17T14:34:20.764Z,98635.20
2019-05-17T14:36:53.696Z,98631.38
2019-05-17T14:39:26.206Z,98622.97
2019-05-17T14:41:59.038Z,98630.73
2019-05-17T14:44:30.825Z,98627.30
2019-05-17T14:47:03.831Z,98624.02
2019-05-17T14:49:38.015Z,98623.41
2019-05-17T14:52:09.125Z,98631.75
2019-05-17T14:54:39.855Z,98627.39
2019-05-17T14:57:10.891Z,98623.23
2019-05-17T14:59:43.713Z,98629.67
2019-05-17T15:02:14.900Z,98622.57
2019-05-17T15:04:45.874Z,98624.59
2019-05-17T15:07:16.657Z,98625.44
2019-05-17T15:09:47.637Z,98626.83
2019-05-17T15:12:27.727Z,98623.90
2019-05-17T15:14:51.351Z,98617.55
2019-05-17T15:17:22.209Z,98614.58
2019-05-17T15:19:52.943Z,98614.62
2019-05-17T15:22:23.945Z,98613.44
2019-05-17T15:24:54.754Z,98613.93
2019-05-17T15:27:25.575Z,98610.20
2019-05-17T15:29:56.305Z,98606.77
2019-05-17T15:32:27.427Z,98607.56
2019-05-17T15:34:58.477Z,98612.59
2019-05-17T15:37:29.332Z,98612.28
2019-05-17T15:40:00.344Z,98606.54
2019-05-17T15:42:43.742Z,98604.58
2019-05-17T15:45:05.506Z,98608.17
2019-05-17T15:47:36.551Z,98603.08
2019-05-17T15:50:07.801Z,98598.19
2019-05-17T15:52:38.639Z,98599.80
2019-05-17T15:55:09.760Z,98594.30
2019-05-17T15:57:40.539Z,98592.83
2019-05-17T16:00:12.933Z,98586.88
2019-05-17T16:02:43.971Z,98594.10
2019-05-17T16:05:15.729Z,98597.02
2019-05-17T16:07:46.942Z,98594.69
2019-05-17T16:10:18.302Z,98589.11
2019-05-17T16:13:01.537Z,98593.61
2019-05-17T16:15:21.992Z,98587.69
2019-05-17T16:17:53.000Z,98590.84
2019-05-17T16:20:26.948Z,98590.59
2019-05-17T16:22:57.708Z,98593.08
2019-05-17T16:25:28.677Z,98593.00
2019-05-17T16:27:59.432Z,98592.30
2019-05-17T16:30:31.439Z,98579.87
2019-05-17T16:33:02.457Z,98579.12
2019-05-17T16:35:33.442Z,98583.39
2019-05-17T16:38:04.300Z,98577.09
2019-05-17T16:40:35.357Z,98574.05
2019-05-17T16:43:17.602Z,98572.80
2019-05-17T16:45:38.929Z,98575.77
2019-05-17T16:48:10.235Z,98575.94
2019-05-17T16:50:41.042Z,98573.52
2019-05-17T16:53:12.033Z,98570.97
2019-05-17T16:55:42.988Z,98577.49
2019-05-17T16:58:13.816Z,98571.34
2019-05-17T17:00:44.706Z,98570.08
2019-05-17T17:03:15.693Z,98574.95
2019-05-17T17:05:46.523Z,98574.93
2019-05-17T17:08:17.989Z,98571.55
2019-05-17T17:10:49.319Z,98573.45
2019-05-17T17:13:32.454Z,98576.93
2019-05-17T17:15:53.752Z,98575.86
2019-05-17T17:18:24.737Z,98579.90
2019-05-17T17:20:55.464Z,98582.72
2019-05-17T17:23:27.257Z,98589.36
2019-05-17T17:25:58.065Z,98590.52
2019-05-17T17:28:29.877Z,98589.16
2019-05-17T17:31:00.909Z,98589.80
2019-05-17T17:33:32.015Z,98586.67
2019-05-17T17:36:02.856Z,98588.11
2019-05-17T17:38:34.288Z,98592.68
2019-05-17T17:41:05.094Z,98587.66
2019-05-17T17:43:36.848Z,98590.86
2019-05-17T17:46:07.933Z,98585.78
2019-05-17T17:48:38.960Z,98585.77
2019-05-17T17:51:10.959Z,98585.78
2019-05-17T17:53:41.769Z,98583.66
2019-05-17T17:56:13.635Z,98583.75
2019-05-17T17:58:44.527Z,98578.59
2019-05-17T18:01:15.569Z,98573.73
2019-05-17T18:03:46.309Z,98574.51
2019-05-17T18:06:17.279Z,98567.92
2019-05-17T18:08:48.263Z,98567.02
2019-05-17T18:11:19.366Z,98575.96
2019-05-17T18:13:50.125Z,98577.78
2019-05-17T18:16:21.050Z,98577.69
2019-05-17T18:18:52.295Z,98579.91
2019-05-17T18:21:23.173Z,98583.56
2019-05-17T18:23:54.677Z,98587.51
2019-05-17T18:26:26.746Z,98586.50
2019-05-17T18:28:58.049Z,98587.83
2019-05-17T18:31:29.228Z,98580.32
2019-05-17T18:34:00.610Z,98587.41
2019-05-17T18:36:31.405Z,98591.47
2019-05-17T18:39:02.530Z,98593.88
2019-05-17T18:41:35.041Z,98594.50
2019-05-17T18:44:06.299Z,98595.29
2019-05-17T18:46:37.365Z,98598.13
2019-05-17T18:49:08.343Z,98602.36
2019-05-17T18:51:39.376Z,98611.32
2019-05-17T18:54:11.136Z,98606.53
2019-05-17T18:56:42.127Z,98607.70
2019-05-17T18:59:14.114Z,98606.05
2019-05-17T19:01:44.979Z,98610.73
2019-05-17T19:04:16.060Z,98610.77
2019-05-17T19:06:46.831Z,98619.23
2019-05-17T19:09:17.648Z,98616.20
2019-05-17T19:11:48.520Z,98624.58
2019-05-17T19:14:20.566Z,98623.90
2019-05-17T19:16:51.306Z,98627.00
2019-05-17T19:19:22.124Z,98625.64
2019-05-17T19:21:53.406Z,98625.75
2019-05-17T19:24:24.385Z,98625.95
2019-05-17T19:26:55.653Z,98631.91
2019-05-17T19:29:26.795Z,98633.09
2019-05-17T19:31:57.607Z,98638.12
2019-05-17T19:34:28.672Z,98639.91
2019-05-17T19:36:59.738Z,98641.27
2019-05-17T19:39:30.721Z,98643.61
2019-05-17T19:42:01.583Z,98645.37
2019-05-17T19:44:33.111Z,98643.90
2019-05-17T19:47:03.918Z,98648.61
2019-05-17T19:49:34.895Z,98649.68
2019-05-17T19:52:05.938Z,98650.86
2019-05-17T19:54:37.170Z,98660.16
2019-05-17T19:57:08.355Z,98653.87
2019-05-17T19:59:39.101Z,98652.14
2019-05-17T20:02:10.205Z,98657.15
2019-05-17T20:04:41.199Z,98658.03
2019-05-17T20:07:11.942Z,98654.46
2019-05-17T20:09:42.790Z,98653.00
2019-05-17T20:12:13.521Z,98658.59
2019-05-17T20:14:44.313Z,98663.78
2019-05-17T20:17:15.075Z,98661.68
2019-05-17T20:19:46.168Z,98657.61
2019-05-17T20:22:16.987Z,98664.30
2019-05-17T20:24:48.403Z,98666.13
2019-05-17T20:27:19.130Z,98669.56
2019-05-17T20:29:50.368Z,98667.51
2019-05-17T20:32:21.624Z,98662.63
2019-05-17T20:34:53.798Z,98661.83
2019-05-17T20:37:25.207Z,98661.84
2019-05-17T20:39:55.956Z,98665.14
2019-05-17T20:42:26.738Z,98665.14
2019-05-17T20:44:58.013Z,98661.91
2019-05-17T20:47:29.921Z,98661.38
2019-05-17T20:50:00.754Z,98661.38
2019-05-17T20:52:32.116Z,98668.44
2019-05-17T20:55:02.864Z,98662.56
2019-05-17T20:57:33.674Z,98662.56
2019-05-17T21:00:04.929Z,98663.59
2019-05-17T21:02:37.489Z,98663.59
2019-05-17T21:05:08.878Z,98666.10
2019-05-17T21:07:39.615Z,98666.10
2019-05-17T21:10:12.357Z,98670.69
2019-05-17T21:12:43.413Z,98663.15
2019-05-17T21:15:15.092Z,98663.15
2019-05-17T21:17:46.171Z,98663.34
2019-05-17T21:20:17.695Z,98661.08
2019-05-17T21:22:48.443Z,98657.30
2019-05-17T21:25:19.864Z,98667.14
2019-05-17T21:27:50.594Z,98664.19
2019-05-17T21:30:21.629Z,98661.28
2019-05-17T21:32:52.975Z,98661.59
2019-05-17T21:35:23.752Z,98662.11
2019-05-17T21:37:54.855Z,98663.37
2019-05-17T21:40:25.657Z,98665.69
2019-05-17T21:42:56.396Z,98670.31
2019-05-17T21:45:27.489Z,98670.30
2019-05-17T21:47:59.200Z,98672.58
2019-05-17T21:50:30.271Z,98667.67
2019-05-17T21:53:01.823Z,98667.67
2019-05-17T21:55:32.561Z,98672.28
2019-05-17T21:58:03.297Z,98681.79
2019-05-17T22:01:04.297Z,98680.63
2019-05-17T22:03:35.109Z,98682.44
2019-05-17T22:06:06.330Z,98697.83
2019-05-17T22:08:37.307Z,98707.42
2019-05-17T22:11:08.126Z,98708.91
2019-05-17T22:13:38.848Z,98716.63
2019-05-17T22:16:19.189Z,98717.12
2019-05-17T22:18:42.581Z,98723.18
2019-05-17T22:21:13.586Z,98723.70
2019-05-17T22:23:44.594Z,98727.03
2019-05-17T22:26:16.318Z,98725.08
2019-05-17T22:28:47.041Z,98721.33
2019-05-17T22:31:17.876Z,98725.73
2019-05-17T22:33:49.843Z,98732.59
2019-05-17T22:36:20.917Z,98725.83
2019-05-17T22:38:51.757Z,98724.17
2019-05-17T22:41:22.504Z,98723.66
2019-05-17T22:43:53.255Z,98722.66
2019-05-17T22:46:35.665Z,98721.61
2019-05-17T22:48:57.439Z,98715.68
2019-05-17T22:51:28.664Z,98716.28
2019-05-17T22:54:00.588Z,98719.52
2019-05-17T22:56:31.563Z,98724.34
2019-05-17T22:59:02.296Z,98721.70
2019-05-17T23:01:33.036Z,98722.09
2019-05-17T23:04:03.788Z,98718.08
2019-05-17T23:06:34.789Z,98722.77
2019-05-17T23:09:06.662Z,98722.09
2019-05-17T23:11:37.504Z,98723.05
2019-05-17T23:14:08.309Z,98720.37
2019-05-17T23:16:50.869Z,98724.00
2019-05-17T23:19:11.751Z,98728.92
2019-05-17T23:21:42.500Z,98725.10
2019-05-17T23:24:14.205Z,98728.27
2019-05-17T23:26:44.967Z,98724.05
2019-05-17T23:29:15.733Z,98727.55
2019-05-17T23:31:46.513Z,98719.36
2019-05-17T23:34:17.893Z,98723.91
2019-05-17T23:36:48.860Z,98719.55
2019-05-17T23:39:19.615Z,98720.45
2019-05-17T23:41:50.388Z,98727.60
2019-05-17T23:44:21.343Z,98720.70
2019-05-17T23:47:06.069Z,98722.30
2019-05-17T23:49:24.855Z,98720.45
2019-05-17T23:51:55.823Z,98713.31
2019-05-17T23:54:27.083Z,98722.29
2019-05-17T23:56:57.857Z,98719.92
2019-05-17T23:59:28.966Z,98720.77
